createdAt,value
2023-05-19T00:01:19.450Z,46.90
2023-05-19T00:03:54.420Z,46.97
2023-05-19T00:06:31.832Z,46.84
2023-05-19T00:09:00.893Z,47.40
2023-05-19T00:11:28.349Z,47.45
2023-05-19T00:13:56.580Z,47.82
2023-05-19T00:16:24.934Z,47.86
2023-05-19T00:18:53.450Z,48.06
2023-05-19T00:21:22.830Z,48.17
2023-05-19T00:23:49.871Z,48.15
2023-05-19T00:26:16.874Z,48.00
2023-05-19T00:28:50.291Z,48.05
2023-05-19T00:31:17.353Z,48.31
2023-05-19T00:33:44.542Z,48.58
2023-05-19T00:36:11.501Z,48.76
2023-05-19T00:38:38.778Z,49.19
2023-05-19T00:41:06.202Z,49.13
2023-05-19T00:43:36.429Z,48.79
2023-05-19T00:46:03.619Z,48.63
2023-05-19T00:48:30.858Z,48.78
2023-05-19T00:51:04.870Z,49.21
2023-05-19T00:53:34.815Z,49.37
2023-05-19T00:56:02.438Z,49.57
2023-05-19T00:58:30.703Z,50.18
2023-05-19T01:01:03.859Z,50.71
2023-05-19T01:03:32.600Z,50.64
2023-05-19T01:06:05.058Z,50.30
2023-05-19T01:08:35.765Z,50.70
2023-05-19T01:11:02.840Z,51.24
2023-05-19T01:13:30.396Z,51.30
2023-05-19T01:16:14.500Z,52.05
2023-05-19T01:18:46.418Z,52.08
2023-05-19T01:21:19.402Z,52.59
2023-05-19T01:24:06.801Z,65.82
2023-05-19T01:27:11.620Z,72.71
2023-05-19T01:30:00.541Z,66.70
2023-05-19T01:32:27.579Z,66.04
2023-05-19T01:34:55.301Z,64.81
2023-05-19T01:37:23.100Z,63.58
2023-05-19T01:39:50.069Z,62.85
2023-05-19T01:42:17.147Z,60.69
2023-05-19T01:44:44.441Z,71.91
2023-05-19T01:47:11.431Z,71.02
2023-05-19T01:49:38.440Z,69.78
2023-05-19T01:52:06.025Z,76.91
2023-05-19T01:54:33.559Z,71.53
2023-05-19T01:57:06.617Z,68.89
2023-05-19T02:00:12.775Z,67.94
2023-05-19T02:02:59.358Z,76.81
2023-05-19T02:05:36.058Z,83.20
2023-05-19T02:08:13.791Z,78.08
2023-05-19T02:10:43.712Z,84.10
2023-05-19T02:13:11.578Z,90.01
2023-05-19T02:15:40.636Z,89.28
2023-05-19T02:18:10.263Z,95.57
2023-05-19T02:20:38.810Z,89.88
2023-05-19T02:23:07.181Z,84.24
2023-05-19T02:25:34.913Z,92.38
2023-05-19T02:28:01.955Z,92.23
2023-05-19T02:30:31.956Z,83.83
2023-05-19T02:33:00.903Z,80.09
2023-05-19T02:35:28.274Z,94.83
2023-05-19T02:37:55.231Z,96.19
2023-05-19T02:40:22.410Z,92.35
2023-05-19T02:42:49.835Z,86.78
2023-05-19T02:45:16.930Z,84.68
2023-05-19T02:47:43.997Z,84.08
2023-05-19T02:50:11.199Z,82.60
2023-05-19T02:52:38.153Z,81.48
2023-05-19T02:55:05.498Z,82.73
2023-05-19T02:57:33.413Z,81.20
2023-05-19T03:00:01.007Z,78.97
2023-05-19T03:02:28.133Z,78.02
2023-05-19T03:04:55.331Z,76.98
2023-05-19T03:07:25.469Z,75.29
2023-05-19T03:09:53.163Z,73.70
2023-05-19T03:12:20.337Z,71.77
2023-05-19T03:14:47.737Z,71.09
2023-05-19T03:17:14.724Z,71.38
2023-05-19T03:19:42.301Z,71.40
2023-05-19T03:22:09.225Z,70.53
2023-05-19T03:24:36.613Z,69.25
2023-05-19T03:27:05.996Z,67.69
2023-05-19T03:29:33.288Z,80.08
2023-05-19T03:32:00.488Z,83.65
2023-05-19T03:34:27.601Z,78.66
2023-05-19T03:36:57.102Z,76.13
2023-05-19T03:39:24.334Z,89.09
2023-05-19T03:41:51.685Z,100.00
2023-05-19T03:44:19.177Z,99.45
2023-05-19T03:46:46.298Z,88.22
2023-05-19T03:49:37.489Z,81.10
2023-05-19T03:52:04.526Z,78.24
2023-05-19T03:54:36.316Z,74.92
2023-05-19T03:57:03.571Z,73.76
2023-05-19T03:59:31.464Z,72.34
2023-05-19T04:01:58.569Z,71.02
2023-05-19T04:04:26.839Z,69.57
2023-05-19T04:06:53.926Z,66.95
2023-05-19T04:09:24.077Z,64.66
2023-05-19T04:11:51.064Z,66.30
2023-05-19T04:14:19.686Z,64.11
2023-05-19T04:16:46.647Z,61.29
2023-05-19T04:19:13.772Z,62.63
2023-05-19T04:21:41.091Z,61.98
2023-05-19T04:24:08.170Z,61.16
2023-05-19T04:26:35.370Z,61.20
2023-05-19T04:29:04.897Z,60.47
2023-05-19T04:31:34.649Z,62.27
2023-05-19T04:34:02.180Z,71.65
2023-05-19T04:36:29.607Z,81.57
2023-05-19T04:39:03.015Z,79.29
2023-05-19T04:41:30.807Z,77.03
2023-05-19T04:43:58.507Z,76.51
2023-05-19T04:46:26.834Z,78.10
2023-05-19T04:48:57.273Z,79.92
2023-05-19T04:51:29.832Z,77.44
2023-05-19T04:53:58.502Z,71.98
2023-05-19T04:56:27.560Z,67.16
2023-05-19T04:58:55.214Z,81.20
2023-05-19T05:01:26.490Z,98.79
2023-05-19T05:03:59.264Z,99.09
2023-05-19T05:06:26.695Z,93.88
2023-05-19T05:08:54.216Z,100.00
2023-05-19T05:11:22.440Z,99.95
2023-05-19T05:13:50.317Z,100.00
2023-05-19T05:16:17.648Z,95.39
2023-05-19T05:18:47.013Z,94.60
2023-05-19T05:21:14.392Z,97.43
2023-05-19T05:23:41.802Z,80.38
2023-05-19T05:26:11.555Z,74.84
2023-05-19T05:28:38.793Z,95.87
2023-05-19T05:31:06.072Z,74.36
2023-05-19T05:33:33.125Z,74.06
2023-05-19T05:36:00.316Z,100.00
2023-05-19T05:38:28.461Z,99.64
2023-05-19T05:40:55.680Z,100.00
2023-05-19T05:43:22.866Z,100.00
2023-05-19T05:45:54.542Z,100.00
2023-05-19T05:48:22.344Z,100.00
2023-05-19T05:50:50.480Z,100.00
2023-05-19T05:53:20.538Z,100.00
2023-05-19T05:55:50.264Z,93.05
2023-05-19T05:58:17.550Z,85.12
2023-05-19T06:00:45.402Z,87.96
2023-05-19T06:03:13.619Z,82.77
2023-05-19T06:05:41.003Z,87.00
2023-05-19T06:08:08.717Z,75.79
2023-05-19T06:10:37.017Z,93.76
2023-05-19T06:13:05.757Z,82.34
2023-05-19T06:15:32.840Z,96.95
2023-05-19T06:18:13.603Z,100.00
2023-05-19T06:20:40.579Z,100.00
2023-05-19T06:23:07.621Z,94.88
2023-05-19T06:25:36.088Z,93.31
2023-05-19T06:28:03.713Z,100.00
2023-05-19T06:30:31.315Z,92.82
2023-05-19T06:33:21.142Z,85.22
2023-05-19T06:35:48.126Z,87.22
2023-05-19T06:38:15.381Z,76.10
2023-05-19T06:40:42.560Z,67.76
2023-05-19T06:43:09.858Z,65.33
2023-05-19T06:45:57.120Z,61.85
2023-05-19T06:48:25.227Z,60.14
2023-05-19T06:50:52.667Z,58.93
2023-05-19T06:53:20.046Z,58.28
2023-05-19T06:55:58.583Z,57.19
2023-05-19T06:58:28.590Z,57.63
2023-05-19T07:00:56.041Z,57.52
2023-05-19T07:03:24.981Z,56.29
2023-05-19T07:05:52.331Z,83.74
2023-05-19T07:08:19.429Z,100.00
2023-05-19T07:10:46.596Z,100.00
2023-05-19T07:13:13.939Z,99.73
2023-05-19T07:15:41.338Z,95.45
2023-05-19T07:18:08.371Z,90.79
2023-05-19T07:20:35.927Z,94.12
2023-05-19T07:23:02.948Z,83.00
2023-05-19T07:25:30.783Z,92.20
2023-05-19T07:27:57.899Z,100.00
2023-05-19T07:30:25.285Z,100.00
2023-05-19T07:32:52.325Z,100.00
2023-05-19T07:35:20.563Z,100.00
2023-05-19T07:37:47.696Z,100.00
2023-05-19T07:40:14.731Z,99.49
2023-05-19T07:42:41.825Z,91.54
2023-05-19T07:45:09.410Z,80.70
2023-05-19T07:47:36.603Z,97.98
2023-05-19T07:50:04.157Z,91.78
2023-05-19T07:52:31.348Z,100.00
2023-05-19T07:54:59.341Z,92.12
2023-05-19T07:57:26.409Z,90.44
2023-05-19T07:59:53.374Z,100.00
2023-05-19T08:02:21.211Z,100.00
2023-05-19T08:04:49.605Z,100.00
2023-05-19T08:07:16.703Z,100.00
2023-05-19T08:09:43.745Z,100.00
2023-05-19T08:12:11.014Z,99.02
2023-05-19T08:14:38.101Z,96.75
2023-05-19T08:17:05.131Z,100.00
2023-05-19T08:19:33.534Z,100.00
2023-05-19T08:22:01.466Z,100.00
2023-05-19T08:24:33.049Z,100.00
2023-05-19T08:27:00.110Z,100.00
2023-05-19T08:29:27.255Z,100.00
2023-05-19T08:31:54.297Z,100.00
2023-05-19T08:34:21.306Z,99.76
2023-05-19T08:36:48.802Z,99.13
2023-05-19T08:39:18.394Z,100.00
2023-05-19T08:41:45.624Z,98.49
2023-05-19T08:44:12.587Z,94.03
2023-05-19T08:46:39.664Z,86.69
2023-05-19T08:49:11.456Z,81.08
2023-05-19T08:51:50.595Z,79.38
2023-05-19T08:54:18.701Z,75.41
2023-05-19T08:56:45.815Z,72.94
2023-05-19T08:59:14.191Z,70.08
2023-05-19T09:01:49.693Z,67.29
2023-05-19T09:04:17.021Z,66.45
2023-05-19T09:06:45.346Z,66.72
2023-05-19T09:09:12.728Z,63.72
2023-05-19T09:11:39.815Z,63.39
2023-05-19T09:14:06.849Z,63.95
2023-05-19T09:16:34.146Z,62.55
2023-05-19T09:19:01.427Z,62.66
2023-05-19T09:21:31.696Z,62.52
2023-05-19T09:23:59.482Z,59.07
2023-05-19T09:26:35.769Z,58.67
2023-05-19T09:29:03.385Z,58.72
2023-05-19T09:31:33.004Z,76.30
2023-05-19T09:34:00.222Z,73.12
2023-05-19T09:36:29.840Z,71.52
2023-05-19T09:38:56.977Z,71.10
2023-05-19T09:41:23.978Z,97.61
2023-05-19T09:43:55.065Z,95.77
2023-05-19T09:46:28.569Z,97.94
2023-05-19T09:48:58.886Z,100.00
2023-05-19T09:51:25.876Z,100.00
2023-05-19T09:53:53.686Z,100.00
2023-05-19T09:56:23.887Z,100.00
2023-05-19T09:58:50.875Z,100.00
2023-05-19T10:01:18.007Z,100.00
2023-05-19T10:03:45.036Z,99.13
2023-05-19T10:06:12.062Z,100.00
2023-05-19T10:08:39.821Z,94.09
2023-05-19T10:11:07.154Z,85.02
2023-05-19T10:13:36.051Z,100.00
2023-05-19T10:16:03.768Z,84.88
2023-05-19T10:18:30.864Z,64.44
2023-05-19T10:20:58.175Z,58.16
2023-05-19T10:23:25.628Z,55.44
2023-05-19T10:25:52.701Z,54.05
2023-05-19T10:28:21.230Z,54.49
2023-05-19T10:30:50.005Z,54.59
2023-05-19T10:33:18.315Z,55.70
2023-05-19T10:35:57.664Z,55.23
2023-05-19T10:38:34.413Z,52.70
2023-05-19T10:41:41.210Z,54.47
2023-05-19T10:44:14.403Z,78.63
2023-05-19T10:46:43.266Z,57.90
2023-05-19T10:49:10.363Z,57.90
2023-05-19T10:51:37.403Z,56.54
2023-05-19T10:54:11.014Z,56.04
2023-05-19T10:56:42.519Z,65.93
2023-05-19T10:59:09.605Z,55.83
2023-05-19T11:01:38.500Z,54.59
2023-05-19T11:04:14.104Z,53.24
2023-05-19T11:06:41.889Z,53.00
2023-05-19T11:09:08.837Z,53.38
2023-05-19T11:11:48.178Z,79.11
2023-05-19T11:14:19.398Z,99.16
2023-05-19T11:16:51.488Z,95.76
2023-05-19T11:19:48.371Z,100.00
2023-05-19T11:22:15.501Z,70.17
2023-05-19T11:24:53.511Z,64.93
2023-05-19T11:27:20.468Z,91.91
2023-05-19T11:29:48.587Z,64.02
2023-05-19T11:32:15.781Z,68.04
2023-05-19T11:34:46.990Z,67.54
2023-05-19T11:37:14.081Z,98.90
2023-05-19T11:39:41.461Z,100.00
2023-05-19T11:42:11.829Z,100.00
2023-05-19T11:44:41.315Z,100.00
2023-05-19T11:47:08.728Z,100.00
2023-05-19T11:49:36.003Z,100.00
2023-05-19T11:52:03.779Z,91.65
2023-05-19T11:54:36.782Z,72.22
2023-05-19T11:57:04.076Z,63.96
2023-05-19T11:59:36.247Z,64.24
2023-05-19T12:02:18.394Z,65.18
2023-05-19T12:04:46.112Z,63.81
2023-05-19T12:07:14.034Z,63.85
2023-05-19T12:09:41.039Z,61.52
2023-05-19T12:12:08.589Z,62.10
2023-05-19T12:14:37.074Z,79.27
2023-05-19T12:17:14.227Z,87.30
2023-05-19T12:19:44.704Z,100.00
2023-05-19T12:22:11.730Z,96.51
2023-05-19T12:24:39.128Z,100.00
2023-05-19T12:27:07.749Z,95.58
2023-05-19T12:29:34.864Z,78.49
2023-05-19T12:32:01.941Z,88.98
2023-05-19T12:34:29.264Z,91.14
2023-05-19T12:36:56.241Z,95.17
2023-05-19T12:39:24.503Z,95.52
2023-05-19T12:41:51.422Z,78.23
2023-05-19T12:44:18.576Z,80.67
2023-05-19T12:46:45.527Z,98.26
2023-05-19T12:49:12.768Z,78.99
2023-05-19T12:51:40.490Z,73.48
2023-05-19T12:54:08.236Z,76.78
2023-05-19T12:56:35.379Z,87.08
2023-05-19T12:59:02.417Z,79.06
2023-05-19T13:01:29.629Z,74.89
2023-05-19T13:03:57.374Z,70.62
2023-05-19T13:06:24.603Z,69.58
2023-05-19T13:08:51.602Z,70.71
2023-05-19T13:11:19.477Z,69.62
2023-05-19T13:13:47.324Z,70.26
2023-05-19T13:16:14.305Z,67.98
2023-05-19T13:18:41.358Z,76.19
2023-05-19T13:21:08.393Z,100.00
2023-05-19T13:23:35.625Z,100.00
2023-05-19T13:26:05.125Z,100.00
2023-05-19T13:28:32.160Z,98.25
2023-05-19T13:30:59.620Z,100.00
2023-05-19T13:33:26.785Z,100.00
2023-05-19T13:35:54.248Z,100.00
2023-05-19T13:38:21.210Z,100.00
2023-05-19T13:40:48.169Z,100.00
2023-05-19T13:43:15.350Z,100.00
2023-05-19T13:45:44.560Z,98.29
2023-05-19T13:48:12.294Z,99.69
2023-05-19T13:50:39.511Z,100.00
2023-05-19T13:53:06.672Z,100.00
2023-05-19T13:55:33.746Z,99.98
2023-05-19T13:58:00.772Z,100.00
2023-05-19T14:00:27.878Z,91.31
2023-05-19T14:02:55.262Z,81.59
2023-05-19T14:05:22.378Z,77.46
2023-05-19T14:07:49.835Z,72.95
2023-05-19T14:10:16.854Z,71.06
2023-05-19T14:13:04.855Z,64.56
2023-05-19T14:15:32.489Z,60.88
2023-05-19T14:17:59.488Z,60.79
2023-05-19T14:20:29.199Z,58.98
2023-05-19T14:22:56.519Z,59.23
2023-05-19T14:25:23.501Z,70.75
2023-05-19T14:27:50.816Z,95.80
2023-05-19T14:30:17.779Z,92.71
2023-05-19T14:32:44.936Z,100.00
2023-05-19T14:35:12.135Z,100.00
2023-05-19T14:37:39.066Z,100.00
2023-05-19T14:40:07.029Z,100.00
2023-05-19T14:42:34.018Z,100.00
2023-05-19T14:45:01.079Z,100.00
2023-05-19T14:47:28.208Z,100.00
2023-05-19T14:49:55.660Z,100.00
2023-05-19T14:52:23.056Z,97.75
2023-05-19T14:54:50.058Z,99.24
2023-05-19T14:57:17.045Z,98.06
2023-05-19T14:59:43.982Z,96.39
2023-05-19T15:02:12.102Z,84.65
2023-05-19T15:04:39.670Z,85.11
2023-05-19T15:07:10.262Z,100.00
2023-05-19T15:09:38.275Z,100.00
2023-05-19T15:12:05.859Z,99.46
2023-05-19T15:14:32.985Z,84.89
2023-05-19T15:17:00.038Z,93.65
2023-05-19T15:19:27.289Z,95.98
2023-05-19T15:21:54.428Z,90.91
2023-05-19T15:24:21.542Z,72.36
2023-05-19T15:26:48.825Z,70.04
2023-05-19T15:29:15.936Z,66.20
2023-05-19T15:31:43.141Z,74.90
2023-05-19T15:34:10.401Z,66.44
2023-05-19T15:36:37.414Z,63.47
2023-05-19T15:39:05.184Z,58.06
2023-05-19T15:41:32.261Z,57.65
2023-05-19T15:44:00.722Z,56.47
2023-05-19T15:46:28.644Z,55.85
2023-05-19T15:48:56.033Z,56.06
2023-05-19T15:51:23.010Z,54.30
2023-05-19T15:53:50.046Z,53.38
2023-05-19T15:56:17.088Z,59.02
2023-05-19T15:58:44.638Z,60.13
2023-05-19T16:01:12.112Z,56.48
2023-05-19T16:03:39.285Z,52.40
2023-05-19T16:06:06.486Z,50.88
2023-05-19T16:08:33.458Z,51.13
2023-05-19T16:11:00.540Z,50.00
2023-05-19T16:13:27.869Z,48.19
2023-05-19T16:15:54.853Z,47.10
2023-05-19T16:18:22.923Z,47.04
2023-05-19T16:20:50.806Z,53.25
2023-05-19T16:23:17.764Z,58.86
2023-05-19T16:25:44.696Z,56.36
2023-05-19T16:28:12.002Z,72.84
2023-05-19T16:30:39.141Z,88.27
2023-05-19T16:33:06.403Z,92.40
2023-05-19T16:35:33.360Z,93.86
2023-05-19T16:38:00.368Z,92.21
2023-05-19T16:40:30.108Z,91.86
2023-05-19T16:42:58.035Z,92.77
2023-05-19T16:45:26.582Z,91.64
2023-05-19T16:47:53.816Z,92.85
2023-05-19T16:50:20.964Z,96.36
2023-05-19T16:52:47.906Z,96.15
2023-05-19T16:55:19.906Z,69.42
2023-05-19T16:57:47.386Z,62.86
2023-05-19T17:00:15.066Z,61.49
2023-05-19T17:02:42.209Z,59.93
2023-05-19T17:05:09.340Z,68.83
2023-05-19T17:07:36.372Z,86.77
2023-05-19T17:10:03.538Z,90.51
2023-05-19T17:12:30.680Z,99.68
2023-05-19T17:14:57.632Z,100.00
2023-05-19T17:17:24.673Z,100.00
2023-05-19T17:19:52.261Z,100.00
2023-05-19T17:22:19.591Z,100.00
2023-05-19T17:24:47.656Z,100.00
2023-05-19T17:27:15.274Z,100.00
2023-05-19T17:29:42.512Z,100.00
2023-05-19T17:32:09.592Z,99.98
2023-05-19T17:34:36.767Z,100.00
2023-05-19T17:37:04.050Z,100.00
2023-05-19T17:39:31.265Z,100.00
2023-05-19T17:41:58.329Z,100.00
2023-05-19T17:44:25.324Z,100.00
2023-05-19T17:46:52.775Z,100.00
2023-05-19T17:49:20.217Z,100.00
2023-05-19T17:51:47.388Z,98.91
2023-05-19T17:54:14.793Z,86.25
2023-05-19T17:56:43.130Z,77.69
2023-05-19T17:59:10.739Z,72.61
2023-05-19T18:01:38.338Z,68.11
2023-05-19T18:04:06.081Z,68.09
2023-05-19T18:06:33.475Z,66.93
2023-05-19T18:09:01.396Z,67.11
2023-05-19T18:11:29.276Z,69.95
2023-05-19T18:13:57.534Z,100.00
2023-05-19T18:16:25.869Z,100.00
2023-05-19T18:18:53.128Z,100.00
2023-05-19T18:21:20.120Z,100.00
2023-05-19T18:23:48.037Z,100.00
2023-05-19T18:26:15.453Z,100.00
2023-05-19T18:28:44.102Z,100.00
2023-05-19T18:31:17.602Z,100.00
2023-05-19T18:33:48.108Z,100.00
2023-05-19T18:36:16.871Z,100.00
2023-05-19T18:38:44.047Z,100.00
2023-05-19T18:41:10.952Z,100.00
2023-05-19T18:43:39.031Z,100.00
2023-05-19T18:46:06.329Z,100.00
2023-05-19T18:48:33.577Z,100.00
2023-05-19T18:51:00.697Z,100.00
2023-05-19T18:53:27.701Z,96.70
2023-05-19T18:55:54.824Z,84.39
2023-05-19T18:58:22.197Z,78.48
2023-05-19T19:00:49.269Z,100.00
2023-05-19T19:03:16.428Z,100.00
2023-05-19T19:05:44.366Z,100.00
2023-05-19T19:08:11.414Z,100.00
2023-05-19T19:10:40.782Z,100.00
2023-05-19T19:13:07.802Z,99.32
2023-05-19T19:15:35.103Z,89.61
2023-05-19T19:18:02.519Z,83.09
2023-05-19T19:20:29.952Z,77.83
2023-05-19T19:22:58.909Z,74.27
2023-05-19T19:25:25.876Z,77.41
2023-05-19T19:27:52.909Z,74.13
2023-05-19T19:30:20.018Z,73.81
2023-05-19T19:32:47.130Z,73.06
2023-05-19T19:35:14.241Z,71.45
2023-05-19T19:37:41.260Z,71.03
2023-05-19T19:40:09.773Z,75.09
2023-05-19T19:42:38.596Z,82.73
2023-05-19T19:45:06.792Z,80.93
2023-05-19T19:47:33.959Z,82.61
2023-05-19T19:50:02.851Z,84.25
2023-05-19T19:52:29.894Z,82.41
2023-05-19T19:54:57.428Z,87.26
2023-05-19T19:57:24.706Z,83.30
2023-05-19T19:59:55.365Z,79.08
2023-05-19T20:02:22.800Z,93.38
2023-05-19T20:04:49.967Z,84.71
2023-05-19T20:07:19.756Z,81.35
2023-05-19T20:09:47.186Z,78.50
2023-05-19T20:12:14.250Z,76.62
2023-05-19T20:14:41.280Z,75.94
2023-05-19T20:17:09.326Z,74.08
2023-05-19T20:19:36.413Z,71.85
2023-05-19T20:22:03.567Z,70.44
2023-05-19T20:24:30.481Z,69.04
2023-05-19T20:26:57.473Z,68.32
2023-05-19T20:29:24.530Z,67.78
2023-05-19T20:31:51.653Z,76.97
2023-05-19T20:34:18.726Z,80.66
2023-05-19T20:36:45.772Z,78.91
2023-05-19T20:39:12.996Z,78.01
2023-05-19T20:41:40.030Z,76.93
2023-05-19T20:44:08.628Z,78.07
2023-05-19T20:46:35.910Z,77.09
2023-05-19T20:49:03.333Z,82.13
2023-05-19T20:51:30.348Z,100.00
2023-05-19T20:53:57.333Z,100.00
2023-05-19T20:56:24.275Z,100.00
2023-05-19T20:58:51.389Z,100.00
2023-05-19T21:01:18.419Z,100.00
2023-05-19T21:03:45.517Z,100.00
2023-05-19T21:06:12.517Z,100.00
2023-05-19T21:08:39.509Z,100.00
2023-05-19T21:11:06.655Z,100.00
2023-05-19T21:13:33.965Z,100.00
2023-05-19T21:16:01.343Z,100.00
2023-05-19T21:18:28.921Z,100.00
2023-05-19T21:20:56.757Z,100.00
2023-05-19T21:23:23.728Z,100.00
2023-05-19T21:25:50.821Z,100.00
2023-05-19T21:28:17.934Z,100.00
2023-05-19T21:30:49.213Z,100.00
2023-05-19T21:33:17.400Z,100.00
2023-05-19T21:35:45.689Z,100.00
2023-05-19T21:38:23.407Z,100.00
2023-05-19T21:40:52.660Z,98.16
2023-05-19T21:43:19.687Z,94.47
2023-05-19T21:45:46.619Z,94.56
2023-05-19T21:48:13.614Z,92.23
2023-05-19T21:50:40.752Z,89.93
2023-05-19T21:53:08.103Z,87.23
2023-05-19T21:55:35.248Z,84.13
2023-05-19T21:58:02.702Z,79.71
2023-05-19T22:00:30.050Z,95.37
2023-05-19T22:02:57.163Z,100.00
2023-05-19T22:05:24.416Z,100.00
2023-05-19T22:07:51.370Z,100.00
2023-05-19T22:10:18.408Z,100.00
2023-05-19T22:12:45.462Z,100.00
2023-05-19T22:15:13.606Z,100.00
2023-05-19T22:17:40.811Z,99.70
2023-05-19T22:20:08.694Z,95.21
2023-05-19T22:22:35.710Z,92.41
2023-05-19T22:25:03.093Z,88.43
2023-05-19T22:27:30.092Z,100.00
2023-05-19T22:29:57.431Z,100.00
2023-05-19T22:32:24.440Z,100.00
2023-05-19T22:34:51.766Z,100.00
2023-05-19T22:37:19.021Z,100.00
2023-05-19T22:39:46.194Z,100.00
2023-05-19T22:42:13.147Z,100.00
2023-05-19T22:44:40.173Z,100.00
2023-05-19T22:47:13.360Z,100.00
2023-05-19T22:49:43.580Z,100.00
2023-05-19T22:52:10.947Z,99.33
2023-05-19T22:54:38.156Z,99.19
2023-05-19T22:57:05.982Z,100.00
2023-05-19T22:59:32.990Z,100.00
2023-05-19T23:02:00.140Z,100.00
2023-05-19T23:04:27.382Z,99.70
2023-05-19T23:06:54.512Z,92.55
2023-05-19T23:09:22.058Z,96.64
2023-05-19T23:11:49.462Z,100.00
2023-05-19T23:14:16.544Z,100.00
2023-05-19T23:16:43.554Z,100.00
2023-05-19T23:19:10.623Z,100.00
2023-05-19T23:21:38.212Z,99.40
2023-05-19T23:24:06.628Z,94.74
2023-05-19T23:26:33.755Z,100.00
2023-05-19T23:29:00.829Z,100.00
2023-05-19T23:31:27.800Z,98.84
2023-05-19T23:33:54.874Z,90.52
2023-05-19T23:36:23.268Z,98.38
2023-05-19T23:38:50.368Z,100.00
2023-05-19T23:41:17.368Z,100.00
2023-05-19T23:43:44.282Z,100.00
2023-05-19T23:46:11.456Z,100.00
2023-05-19T23:48:39.509Z,100.00
2023-05-19T23:51:06.686Z,100.00
2023-05-19T23:53:33.692Z,100.00
2023-05-19T23:56:00.635Z,97.09
2023-05-19T23:58:27.565Z,90.73
